CLD weather

Mc Clellan-Palomar Airport
Carlsbad, California, United States

Public forecast

Using degrees Fahrenheit for public forecast. Weather courtesy of forecast.io.

Current aviation weather report (METAR) for Mc Clellan-Palomar Airport

Retrieved 2020/02/22 07:32 UTC (11 minutes ago):

KCRQ 220732Z AUTO 14003KT 9SM FEW016 BKN028 BKN090 14/11 A3003

Aviation forecast (TAF) for Mc Clellan-Palomar Airport

Retrieved 2020/02/22 06:34 UTC (1 hour ago):

TAF KCRQ 220532Z 2206/2306 16006KT 6SM BR SCT008 BKN012 BKN020 FM220800 16008KT P6SM VCSH BKN012 BKN070 FM221200 20009KT P6SM -SHRA VCTS BKN025CB FM221900 23012KT P6SM -SHRA VCTS BKN025CB FM222300 24006KT P6SM VCSH BKN035